LFPB 210400Z AUTO 34005KT 9999 FEW049 BKN056 BKN250 02/00 Q1036 TEMPO BKN006

ElémentsDécodage
LFPB Station météo située sur l'aérodrome de PARIS Le-Bourget
210400Z émis le 21 du mois à 04h00 UTC
AUTO Bulletin édité par un automate
34005KT vent du 340°, 05 noeuds
9999 visibilité horizontale supérieure à 10 Km
FEW049 nuages rares (1/8 à 2/8) à 4900 pieds
BKN056 nuages morcelés (5/8 à 7/8) à 5600 pieds
BKN250 nuages morcelés (5/8 à 7/8) à 25000 pieds
02/00 température 02°C, point de rosée 00°C
 soit une humidité relative de 87%
Q1036 la pression au niveau de la mer (QNH) est de 1036 hPa
TEMPO fluctuation temporaire prévue
BKN006 nuages morcelés (5/8 à 7/8) à 600 pieds